createdAt,value
2019-03-13T00:01:30.071Z,2.75
2019-03-13T00:04:00.753Z,3.58
2019-03-13T00:06:31.459Z,2.42
2019-03-13T00:09:02.071Z,3.50
2019-03-13T00:11:32.493Z,3.00
2019-03-13T00:14:02.948Z,3.50
2019-03-13T00:16:34.504Z,2.20
2019-03-13T00:19:04.925Z,2.30
2019-03-13T00:21:35.647Z,3.17
2019-03-13T00:24:06.499Z,2.20
2019-03-13T00:26:40.458Z,1.92
2019-03-13T00:29:11.152Z,2.52
2019-03-13T00:31:41.979Z,2.37
2019-03-13T00:34:12.443Z,2.05
2019-03-13T00:36:43.161Z,2.85
2019-03-13T00:39:13.751Z,2.60
2019-03-13T00:41:44.345Z,1.90
2019-03-13T00:44:14.953Z,2.30
2019-03-13T00:46:45.719Z,1.90
2019-03-13T00:49:16.302Z,1.65
2019-03-13T00:51:46.892Z,1.95
2019-03-13T00:54:17.575Z,1.85
2019-03-13T00:56:47.979Z,2.40
2019-03-13T00:59:18.559Z,2.25
2019-03-13T01:02:11.025Z,2.08
2019-03-13T01:04:49.516Z,2.42
2019-03-13T01:07:20.152Z,1.55
2019-03-13T01:09:50.701Z,1.70
2019-03-13T01:12:21.298Z,2.45
2019-03-13T01:14:51.904Z,1.57
2019-03-13T01:17:22.511Z,1.50
2019-03-13T01:19:53.220Z,1.40
2019-03-13T01:22:23.785Z,1.95
2019-03-13T01:24:54.472Z,2.15
2019-03-13T01:27:25.111Z,2.08
2019-03-13T01:29:55.931Z,1.75
2019-03-13T01:32:48.936Z,1.87
2019-03-13T01:35:29.064Z,1.50
2019-03-13T01:37:59.868Z,1.70
2019-03-13T01:40:30.649Z,2.22
2019-03-13T01:43:01.190Z,1.35
2019-03-13T01:45:31.659Z,1.40
2019-03-13T01:48:02.189Z,1.87
2019-03-13T01:50:32.922Z,1.27
2019-03-13T01:53:03.806Z,2.17
2019-03-13T01:55:34.384Z,2.10
2019-03-13T01:58:04.916Z,2.10
2019-03-13T02:00:35.747Z,2.65
2019-03-13T02:03:06.342Z,1.77
2019-03-13T02:05:36.917Z,1.20
2019-03-13T02:08:07.399Z,1.35
2019-03-13T02:10:37.951Z,2.08
2019-03-13T02:13:08.512Z,1.52
2019-03-13T02:15:39.063Z,1.98
2019-03-13T02:18:09.671Z,2.95
2019-03-13T02:20:40.188Z,1.77
2019-03-13T02:23:10.617Z,1.70
2019-03-13T02:25:41.467Z,2.17
2019-03-13T02:28:11.992Z,1.27
2019-03-13T02:30:42.738Z,1.72
2019-03-13T02:33:13.451Z,1.20
2019-03-13T02:35:44.186Z,1.20
2019-03-13T02:38:14.586Z,2.15
2019-03-13T02:40:45.098Z,1.27
2019-03-13T02:43:15.694Z,1.60
2019-03-13T02:45:46.338Z,1.20
2019-03-13T02:48:16.930Z,1.27
2019-03-13T02:50:47.494Z,1.70
2019-03-13T02:53:18.100Z,1.65
2019-03-13T02:55:48.646Z,1.45
2019-03-13T02:58:19.290Z,1.30
2019-03-13T03:01:17.983Z,1.50
2019-03-13T03:03:51.903Z,1.55
2019-03-13T03:06:22.309Z,1.20
2019-03-13T03:08:53.057Z,1.20
2019-03-13T03:11:24.309Z,1.20
2019-03-13T03:13:55.148Z,1.52
2019-03-13T03:16:26.102Z,1.30
2019-03-13T03:18:57.108Z,1.25
2019-03-13T03:21:27.866Z,0.95
2019-03-13T03:23:58.605Z,1.32
2019-03-13T03:26:29.427Z,1.65
2019-03-13T03:29:00.079Z,1.12
2019-03-13T03:31:30.596Z,1.37
2019-03-13T03:34:05.053Z,1.00
2019-03-13T03:36:35.815Z,1.12
2019-03-13T03:39:08.011Z,0.90
2019-03-13T03:41:38.518Z,1.37
2019-03-13T03:44:09.003Z,1.57
2019-03-13T03:46:39.778Z,1.60
2019-03-13T03:49:10.427Z,1.00
2019-03-13T03:51:41.067Z,1.40
2019-03-13T03:54:11.442Z,1.47
2019-03-13T03:56:42.326Z,1.00
2019-03-13T03:59:12.736Z,1.00
2019-03-13T04:01:43.392Z,0.82
2019-03-13T04:04:14.024Z,1.12
2019-03-13T04:06:44.733Z,1.10
2019-03-13T04:09:15.353Z,1.20
2019-03-13T04:11:46.121Z,1.87
2019-03-13T04:14:16.517Z,0.88
2019-03-13T04:16:47.145Z,1.10
2019-03-13T04:19:17.677Z,1.25
2019-03-13T04:21:48.492Z,1.10
2019-03-13T04:24:19.454Z,1.20
2019-03-13T04:26:50.230Z,0.90
2019-03-13T04:29:21.713Z,1.10
2019-03-13T04:31:52.412Z,1.20
2019-03-13T04:34:25.027Z,1.10
2019-03-13T04:36:56.031Z,1.32
2019-03-13T04:39:26.790Z,1.02
2019-03-13T04:41:57.392Z,0.90
2019-03-13T04:44:28.020Z,1.15
2019-03-13T04:46:58.600Z,2.15
2019-03-13T04:49:29.423Z,1.12
2019-03-13T04:51:59.985Z,1.10
2019-03-13T04:54:30.584Z,0.78
2019-03-13T04:57:01.359Z,0.80
2019-03-13T04:59:32.075Z,1.05
2019-03-13T05:02:02.724Z,0.90
2019-03-13T05:04:33.260Z,0.90
2019-03-13T05:07:04.035Z,0.80
2019-03-13T05:09:40.838Z,1.10
2019-03-13T05:12:11.623Z,0.70
2019-03-13T05:14:42.160Z,1.02
2019-03-13T05:17:12.870Z,1.00
2019-03-13T05:19:43.437Z,0.70
2019-03-13T05:22:14.180Z,0.88
2019-03-13T05:24:44.792Z,0.90
2019-03-13T05:27:15.625Z,1.15
2019-03-13T05:29:46.271Z,0.80
2019-03-13T05:32:16.918Z,0.80
2019-03-13T05:34:47.339Z,0.90
2019-03-13T05:37:18.003Z,0.80
2019-03-13T05:39:48.556Z,1.02
2019-03-13T05:42:19.330Z,0.72
2019-03-13T05:44:50.127Z,1.00
2019-03-13T05:47:20.804Z,0.75
2019-03-13T05:49:51.377Z,1.30
2019-03-13T05:52:22.264Z,1.07
2019-03-13T05:54:52.878Z,0.80
2019-03-13T05:57:23.567Z,0.98
2019-03-13T05:59:54.163Z,0.82
2019-03-13T06:02:24.705Z,0.80
2019-03-13T06:04:55.595Z,0.80
2019-03-13T06:07:26.202Z,1.50
2019-03-13T06:09:57.017Z,1.40
2019-03-13T06:12:27.734Z,3.75
2019-03-13T06:14:58.635Z,8.35
2019-03-13T06:17:29.383Z,3.65
2019-03-13T06:19:59.926Z,3.65
2019-03-13T06:22:30.995Z,7.08
2019-03-13T06:25:01.593Z,4.15
2019-03-13T06:27:32.568Z,5.47
2019-03-13T06:30:03.325Z,4.25
2019-03-13T06:32:33.999Z,7.87
2019-03-13T06:35:04.827Z,4.22
2019-03-13T06:37:35.577Z,5.33
2019-03-13T06:40:07.282Z,4.35
2019-03-13T06:42:37.876Z,3.10
2019-03-13T06:45:10.841Z,3.50
2019-03-13T06:47:41.468Z,3.30
2019-03-13T06:50:15.901Z,4.00
2019-03-13T06:52:46.558Z,4.45
2019-03-13T06:55:16.937Z,4.42
2019-03-13T06:57:47.609Z,5.33
2019-03-13T07:00:37.992Z,3.12
2019-03-13T07:03:28.359Z,3.27
2019-03-13T07:06:17.814Z,3.42
2019-03-13T07:09:10.320Z,5.75
2019-03-13T07:11:58.544Z,5.35
2019-03-13T07:14:37.682Z,4.40
2019-03-13T07:17:17.871Z,5.65
2019-03-13T07:20:19.673Z,6.22
2019-03-13T07:22:58.328Z,5.33
2019-03-13T07:25:51.049Z,6.72
2019-03-13T07:28:44.415Z,4.45
2019-03-13T07:31:33.832Z,6.08
2019-03-13T07:34:21.846Z,5.85
2019-03-13T07:37:20.682Z,4.17
2019-03-13T07:40:01.017Z,3.17
2019-03-13T07:42:49.497Z,6.85
2019-03-13T07:45:42.201Z,4.25
2019-03-13T07:48:22.197Z,2.62
2019-03-13T07:51:14.449Z,4.72
2019-03-13T07:54:06.028Z,1.72
2019-03-13T07:56:58.763Z,4.17
2019-03-13T08:00:00.364Z,3.45
2019-03-13T08:02:50.134Z,2.95
2019-03-13T08:05:39.954Z,3.40
2019-03-13T08:08:32.750Z,3.98
2019-03-13T08:11:25.035Z,2.05
2019-03-13T08:14:12.221Z,2.47
2019-03-13T08:17:16.833Z,2.75
2019-03-13T08:20:21.719Z,2.87
2019-03-13T08:23:11.057Z,3.37
2019-03-13T08:26:04.194Z,4.67
2019-03-13T08:28:46.617Z,3.37
2019-03-13T08:31:38.890Z,3.25
2019-03-13T08:34:27.618Z,1.75
2019-03-13T08:37:24.165Z,4.20
2019-03-13T08:40:19.627Z,2.37
2019-03-13T08:43:07.675Z,3.67
2019-03-13T08:46:00.246Z,4.50
2019-03-13T08:48:38.152Z,3.17
2019-03-13T08:51:26.055Z,2.75
2019-03-13T08:54:14.990Z,3.83
2019-03-13T08:57:01.264Z,4.47
2019-03-13T08:59:54.816Z,3.33
2019-03-13T09:02:39.167Z,2.20
2019-03-13T09:05:34.659Z,3.85
2019-03-13T09:08:24.590Z,1.67
2019-03-13T09:11:13.329Z,3.00
2019-03-13T09:13:54.837Z,1.92
2019-03-13T09:16:34.312Z,1.22
2019-03-13T09:19:26.791Z,4.72
2019-03-13T09:22:19.267Z,2.20
2019-03-13T09:25:11.211Z,1.42
2019-03-13T09:28:00.842Z,3.15
2019-03-13T09:30:41.817Z,1.70
2019-03-13T09:33:26.112Z,2.92
2019-03-13T09:36:15.654Z,1.12
2019-03-13T09:38:51.157Z,1.80
2019-03-13T09:41:30.325Z,1.95
2019-03-13T09:44:26.468Z,1.77
2019-03-13T09:47:28.136Z,1.42
2019-03-13T09:50:15.695Z,2.27
2019-03-13T09:53:03.885Z,1.55
2019-03-13T09:55:56.492Z,1.55
2019-03-13T09:58:48.752Z,1.60
2019-03-13T10:01:38.463Z,2.85
2019-03-13T10:04:36.936Z,1.82
2019-03-13T10:07:25.298Z,2.30
2019-03-13T10:10:20.935Z,1.82
2019-03-13T10:13:15.438Z,2.35
2019-03-13T10:16:14.715Z,1.50
2019-03-13T10:19:16.162Z,2.25
2019-03-13T10:22:24.355Z,2.17
2019-03-13T10:25:23.355Z,2.40
2019-03-13T10:28:02.762Z,1.82
2019-03-13T10:30:50.891Z,2.15
2019-03-13T10:33:58.717Z,1.55
2019-03-13T10:36:34.848Z,1.52
2019-03-13T10:39:28.821Z,1.20
2019-03-13T10:42:21.980Z,1.60
2019-03-13T10:45:04.125Z,1.40
2019-03-13T10:47:53.623Z,2.30
2019-03-13T10:50:42.256Z,2.42
2019-03-13T10:53:30.288Z,3.22
2019-03-13T10:56:10.303Z,3.20
2019-03-13T10:58:58.620Z,3.15
2019-03-13T11:01:38.370Z,3.50
2019-03-13T11:04:18.641Z,1.90
2019-03-13T11:07:03.527Z,2.02
2019-03-13T11:09:41.863Z,2.60
2019-03-13T11:12:31.306Z,2.85
2019-03-13T11:15:26.964Z,3.72
2019-03-13T11:18:12.491Z,2.83
2019-03-13T11:21:00.676Z,3.12
2019-03-13T11:23:48.836Z,2.30
2019-03-13T11:26:32.231Z,4.20
2019-03-13T11:29:15.318Z,2.12
2019-03-13T11:32:17.091Z,2.72
2019-03-13T11:35:12.586Z,3.00
2019-03-13T11:37:54.343Z,2.08
2019-03-13T11:40:41.498Z,4.15
2019-03-13T11:43:43.396Z,3.47
2019-03-13T11:46:35.758Z,3.08
2019-03-13T11:49:25.093Z,3.40
2019-03-13T11:52:29.076Z,2.77
2019-03-13T11:55:11.377Z,2.67
2019-03-13T11:57:59.629Z,2.47
2019-03-13T12:00:47.933Z,3.25
2019-03-13T12:03:49.559Z,2.62
2019-03-13T12:06:41.967Z,3.55
2019-03-13T12:09:49.449Z,2.87
2019-03-13T12:12:38.828Z,2.25
2019-03-13T12:15:36.310Z,2.98
2019-03-13T12:18:29.080Z,1.75
2019-03-13T12:21:21.755Z,2.33
2019-03-13T12:24:11.305Z,2.05
2019-03-13T12:26:54.807Z,3.12
2019-03-13T12:29:48.641Z,2.50
2019-03-13T12:32:32.159Z,2.42
2019-03-13T12:35:13.639Z,2.10
2019-03-13T12:38:06.148Z,2.50
2019-03-13T12:40:56.073Z,3.15
2019-03-13T12:43:51.703Z,2.05
2019-03-13T12:46:30.826Z,2.15
2019-03-13T12:49:18.048Z,1.62
2019-03-13T12:52:13.357Z,3.02
2019-03-13T12:55:09.013Z,2.83
2019-03-13T12:57:57.321Z,3.92
2019-03-13T13:00:50.705Z,3.35
2019-03-13T13:03:39.000Z,2.58
2019-03-13T13:06:34.622Z,1.82
2019-03-13T13:09:31.387Z,3.12
2019-03-13T13:12:17.312Z,3.85
2019-03-13T13:15:09.694Z,4.15
2019-03-13T13:17:57.770Z,1.85
2019-03-13T13:20:28.668Z,2.20
2019-03-13T13:23:02.608Z,7.40
2019-03-13T13:25:33.480Z,5.03
2019-03-13T13:28:04.300Z,3.00
2019-03-13T13:30:34.811Z,3.20
2019-03-13T13:33:05.814Z,4.05
2019-03-13T13:35:36.470Z,1.77
2019-03-13T13:38:09.985Z,3.90
2019-03-13T13:40:39.766Z,3.08
2019-03-13T13:43:10.748Z,3.67
2019-03-13T13:46:06.432Z,3.08
2019-03-13T13:48:37.456Z,5.87
2019-03-13T13:51:08.425Z,2.85
2019-03-13T13:53:38.971Z,4.03
2019-03-13T13:56:09.771Z,2.83
2019-03-13T13:58:40.755Z,2.58
2019-03-13T14:01:11.342Z,2.90
2019-03-13T14:03:42.218Z,5.72
2019-03-13T14:06:12.756Z,6.15
2019-03-13T14:08:43.395Z,5.12
2019-03-13T14:11:13.853Z,4.03
2019-03-13T14:13:44.860Z,2.80
2019-03-13T14:16:15.561Z,6.12
2019-03-13T14:18:46.572Z,3.67
2019-03-13T14:21:17.209Z,2.98
2019-03-13T14:23:47.831Z,2.70
2019-03-13T14:26:18.512Z,2.05
2019-03-13T14:28:51.661Z,2.58
2019-03-13T14:31:22.460Z,4.08
2019-03-13T14:33:53.439Z,2.67
2019-03-13T14:36:24.102Z,5.55
2019-03-13T14:38:54.762Z,2.25
2019-03-13T14:41:26.733Z,2.85
2019-03-13T14:43:57.844Z,3.65
2019-03-13T14:46:28.604Z,4.30
2019-03-13T14:48:59.203Z,3.05
2019-03-13T14:51:29.988Z,2.60
2019-03-13T14:54:00.844Z,3.05
2019-03-13T14:56:31.783Z,5.58
2019-03-13T14:59:02.461Z,4.17
2019-03-13T15:01:33.220Z,2.90
2019-03-13T15:04:03.956Z,1.75
2019-03-13T15:06:34.856Z,2.75
2019-03-13T15:09:05.842Z,3.35
2019-03-13T15:11:36.436Z,3.05
2019-03-13T15:14:09.956Z,2.70
2019-03-13T15:16:40.354Z,2.58
2019-03-13T15:19:11.262Z,2.42
2019-03-13T15:21:41.714Z,3.25
2019-03-13T15:24:12.503Z,3.35
2019-03-13T15:26:43.108Z,2.60
2019-03-13T15:29:14.067Z,3.35
2019-03-13T15:31:44.571Z,2.90
2019-03-13T15:34:15.334Z,5.87
2019-03-13T15:36:45.688Z,3.92
2019-03-13T15:39:16.291Z,3.45
2019-03-13T15:41:46.896Z,5.42
2019-03-13T15:44:17.416Z,4.78
2019-03-13T15:46:47.930Z,5.92
2019-03-13T15:49:18.437Z,4.78
2019-03-13T15:51:48.926Z,3.90
2019-03-13T15:54:19.577Z,6.00
2019-03-13T15:56:50.188Z,5.25
2019-03-13T15:59:20.832Z,4.78
2019-03-13T16:01:51.547Z,5.45
2019-03-13T16:04:22.114Z,6.65
2019-03-13T16:06:52.965Z,10.63
2019-03-13T16:09:23.537Z,9.13
2019-03-13T16:11:54.522Z,30.17
2019-03-13T16:14:25.248Z,7.75
2019-03-13T16:16:55.839Z,13.15
2019-03-13T16:19:26.871Z,7.53
2019-03-13T16:21:57.796Z,9.60
2019-03-13T16:24:28.747Z,11.18
2019-03-13T16:26:59.952Z,9.63
2019-03-13T16:29:31.023Z,7.67
2019-03-13T16:32:01.731Z,9.00
2019-03-13T16:34:32.410Z,8.65
2019-03-13T16:37:03.191Z,6.47
2019-03-13T16:39:33.687Z,6.83
2019-03-13T16:42:04.347Z,6.20
2019-03-13T16:44:35.499Z,4.58
2019-03-13T16:47:06.262Z,8.88
2019-03-13T16:49:39.211Z,6.67
2019-03-13T16:52:09.593Z,10.35
2019-03-13T16:54:40.275Z,5.15
2019-03-13T16:57:10.916Z,9.00
2019-03-13T16:59:41.528Z,5.53
2019-03-13T17:02:12.374Z,10.30
2019-03-13T17:04:43.207Z,7.58
2019-03-13T17:07:13.953Z,7.92
2019-03-13T17:09:44.862Z,6.97
2019-03-13T17:12:15.334Z,4.72
2019-03-13T17:14:46.273Z,4.22
2019-03-13T17:17:17.315Z,5.53
2019-03-13T17:19:47.938Z,5.95
2019-03-13T17:22:18.788Z,6.05
2019-03-13T17:24:49.679Z,7.70
2019-03-13T17:27:20.446Z,9.25
2019-03-13T17:29:51.071Z,8.15
2019-03-13T17:32:22.615Z,5.95
2019-03-13T17:34:53.827Z,7.30
2019-03-13T17:37:25.296Z,4.22
2019-03-13T17:39:56.177Z,7.08
2019-03-13T17:42:26.871Z,7.40
2019-03-13T17:44:57.775Z,7.17
2019-03-13T17:47:28.342Z,6.92
2019-03-13T17:49:59.212Z,5.90
2019-03-13T17:52:29.930Z,7.30
2019-03-13T17:55:00.572Z,8.08
2019-03-13T17:57:31.272Z,7.72
2019-03-13T18:00:02.014Z,5.95
2019-03-13T18:02:32.874Z,6.25
2019-03-13T18:05:03.699Z,8.35
2019-03-13T18:07:34.643Z,7.65
2019-03-13T18:10:05.903Z,5.72
2019-03-13T18:12:36.722Z,8.98
2019-03-13T18:15:07.593Z,6.62
2019-03-13T18:17:38.315Z,9.23
2019-03-13T18:20:12.087Z,7.12
2019-03-13T18:22:42.808Z,2.65
2019-03-13T18:25:13.563Z,5.05
2019-03-13T18:27:44.323Z,4.30
2019-03-13T18:30:18.429Z,4.67
2019-03-13T18:32:49.062Z,5.00
2019-03-13T18:35:20.210Z,6.70
2019-03-13T18:37:51.149Z,5.12
2019-03-13T18:40:21.840Z,5.75
2019-03-13T18:42:52.413Z,6.72
2019-03-13T18:45:25.066Z,6.10
2019-03-13T18:47:55.854Z,6.62
2019-03-13T18:50:26.774Z,11.65
2019-03-13T18:52:57.834Z,6.03
2019-03-13T18:55:28.522Z,6.05
2019-03-13T18:57:59.764Z,5.05
2019-03-13T19:00:31.753Z,6.83
2019-03-13T19:03:02.479Z,17.92
2019-03-13T19:05:33.457Z,20.60
2019-03-13T19:08:04.340Z,20.80
2019-03-13T19:10:35.153Z,18.23
2019-03-13T19:13:06.114Z,12.85
2019-03-13T19:15:39.946Z,12.00
2019-03-13T19:18:09.824Z,12.10
2019-03-13T19:20:41.408Z,11.08
2019-03-13T19:23:14.435Z,14.80
2019-03-13T19:25:45.576Z,10.90
2019-03-13T19:28:16.720Z,11.40
2019-03-13T19:30:47.340Z,7.20
2019-03-13T19:33:18.133Z,8.85
2019-03-13T19:35:49.047Z,7.15
2019-03-13T19:38:19.937Z,12.63
2019-03-13T19:40:50.775Z,8.88
2019-03-13T19:43:21.774Z,10.35
2019-03-13T19:45:52.424Z,12.05
2019-03-13T19:48:23.143Z,6.50
2019-03-13T19:50:56.473Z,10.50
2019-03-13T19:53:26.600Z,8.73
2019-03-13T19:55:57.135Z,7.08
2019-03-13T19:58:28.084Z,9.10
2019-03-13T20:00:58.807Z,9.98
2019-03-13T20:03:29.619Z,12.10
2019-03-13T20:06:00.524Z,9.13
2019-03-13T20:08:31.396Z,12.80
2019-03-13T20:11:02.348Z,6.47
2019-03-13T20:13:33.116Z,10.80
2019-03-13T20:16:03.896Z,11.75
2019-03-13T20:18:34.852Z,8.28
2019-03-13T20:21:05.979Z,12.05
2019-03-13T20:23:38.193Z,7.87
2019-03-13T20:26:09.313Z,7.58
2019-03-13T20:28:40.144Z,7.03
2019-03-13T20:31:11.149Z,9.75
2019-03-13T20:33:41.961Z,7.62
2019-03-13T20:36:12.513Z,8.18
2019-03-13T20:38:47.050Z,9.63
2019-03-13T20:41:16.916Z,7.00
2019-03-13T20:43:48.274Z,7.12
2019-03-13T20:46:19.279Z,9.88
2019-03-13T20:48:50.823Z,6.85
2019-03-13T20:51:21.993Z,7.03
2019-03-13T20:53:53.870Z,4.92
2019-03-13T20:56:25.049Z,6.50
2019-03-13T20:58:56.060Z,4.67
2019-03-13T21:01:27.363Z,6.50
2019-03-13T21:03:59.221Z,3.95
2019-03-13T21:06:30.806Z,7.92
2019-03-13T21:09:02.265Z,4.15
2019-03-13T21:11:34.133Z,6.42
2019-03-13T21:14:06.138Z,6.85
2019-03-13T21:16:37.802Z,5.10
2019-03-13T21:19:10.494Z,3.85
2019-03-13T21:21:41.183Z,3.75
2019-03-13T21:24:12.080Z,4.42
2019-03-13T21:26:42.837Z,6.67
2019-03-13T21:29:13.462Z,7.30
2019-03-13T21:31:44.282Z,6.22
2019-03-13T21:34:15.117Z,6.83
2019-03-13T21:36:45.849Z,5.15
2019-03-13T21:39:16.399Z,5.40
2019-03-13T21:41:50.071Z,4.92
2019-03-13T21:44:21.218Z,7.85
2019-03-13T21:46:52.408Z,13.48
2019-03-13T21:49:23.074Z,7.90
2019-03-13T21:51:54.032Z,7.60
2019-03-13T21:54:24.797Z,9.18
2019-03-13T21:56:55.537Z,7.20
2019-03-13T21:59:26.316Z,6.03
2019-03-13T22:01:56.875Z,7.42
2019-03-13T22:04:27.861Z,7.15
2019-03-13T22:06:58.656Z,6.55
2019-03-13T22:09:29.340Z,5.65
2019-03-13T22:12:00.031Z,5.92
2019-03-13T22:14:30.878Z,4.85
2019-03-13T22:17:01.387Z,6.83
2019-03-13T22:19:32.126Z,4.10
2019-03-13T22:22:03.060Z,7.15
2019-03-13T22:24:33.855Z,4.22
2019-03-13T22:27:04.538Z,4.30
2019-03-13T22:29:35.559Z,4.42
2019-03-13T22:32:06.535Z,4.12
2019-03-13T22:34:37.322Z,3.47
2019-03-13T22:37:08.230Z,5.45
2019-03-13T22:39:39.042Z,8.15
2019-03-13T22:42:09.798Z,2.47
2019-03-13T22:44:40.494Z,7.92
2019-03-13T22:47:11.237Z,4.50
2019-03-13T22:49:42.141Z,2.30
2019-03-13T22:52:12.946Z,4.30
2019-03-13T22:54:43.511Z,5.62
2019-03-13T22:57:14.275Z,4.17
2019-03-13T22:59:44.694Z,4.85
2019-03-13T23:02:15.422Z,15.78
2019-03-13T23:04:46.153Z,7.95
2019-03-13T23:07:16.923Z,12.78
2019-03-13T23:09:47.539Z,6.60
2019-03-13T23:12:18.275Z,9.68
2019-03-13T23:14:49.134Z,10.15
2019-03-13T23:17:19.936Z,12.40
2019-03-13T23:19:50.887Z,8.18
2019-03-13T23:22:21.522Z,8.10
2019-03-13T23:24:52.451Z,6.28
2019-03-13T23:27:23.084Z,4.08
2019-03-13T23:29:53.744Z,7.00
2019-03-13T23:32:24.346Z,3.70
2019-03-13T23:34:55.108Z,6.67
2019-03-13T23:37:25.655Z,5.10
2019-03-13T23:39:56.375Z,3.55
2019-03-13T23:42:26.868Z,5.17
2019-03-13T23:44:57.612Z,3.47
2019-03-13T23:47:28.598Z,4.35
2019-03-13T23:49:59.198Z,3.67
2019-03-13T23:52:29.722Z,2.83
2019-03-13T23:55:00.664Z,4.10
2019-03-13T23:57:31.445Z,2.65
